createdAt,value
2023-04-07T00:01:26.829Z,5.85
2023-04-07T00:04:20.934Z,5.68
2023-04-07T00:07:14.730Z,5.18
2023-04-07T00:10:08.747Z,6.22
2023-04-07T00:13:02.742Z,6.35
2023-04-07T00:15:49.924Z,5.85
2023-04-07T00:18:43.753Z,5.55
2023-04-07T00:21:31.020Z,6.53
2023-04-07T00:24:33.757Z,5.68
2023-04-07T00:27:23.256Z,6.35
2023-04-07T00:30:16.780Z,5.88
2023-04-07T00:33:03.891Z,6.30
2023-04-07T00:35:57.885Z,7.68
2023-04-07T00:38:51.816Z,6.38
2023-04-07T00:41:45.805Z,5.22
2023-04-07T00:44:33.453Z,6.40
2023-04-07T00:47:27.813Z,7.18
2023-04-07T00:50:15.080Z,6.88
2023-04-07T00:53:08.779Z,7.32
2023-04-07T00:55:56.287Z,8.25
2023-04-07T00:58:49.892Z,8.73
2023-04-07T01:02:13.974Z,8.10
2023-04-07T01:05:32.852Z,8.70
2023-04-07T01:08:35.574Z,8.63
2023-04-07T01:11:48.873Z,7.18
2023-04-07T01:14:52.886Z,6.95
2023-04-07T01:17:51.916Z,6.90
2023-04-07T01:20:46.885Z,7.07
2023-04-07T01:23:58.969Z,6.85
2023-04-07T01:26:53.919Z,6.70
2023-04-07T01:29:54.898Z,7.25
2023-04-07T01:32:51.906Z,6.60
2023-04-07T01:35:47.887Z,6.25
2023-04-07T01:38:35.848Z,6.90
2023-04-07T01:41:30.896Z,7.00
2023-04-07T01:44:18.397Z,6.68
2023-04-07T01:47:12.983Z,7.25
2023-04-07T01:50:04.603Z,6.68
2023-04-07T01:52:59.925Z,6.22
2023-04-07T01:55:47.030Z,5.35
2023-04-07T01:58:40.946Z,5.35
2023-04-07T02:01:29.623Z,5.22
2023-04-07T02:04:32.914Z,5.15
2023-04-07T02:07:46.594Z,4.43
2023-04-07T02:10:43.923Z,4.97
2023-04-07T02:13:32.947Z,5.20
2023-04-07T02:16:29.014Z,5.35
2023-04-07T02:19:16.612Z,4.20
2023-04-07T02:22:11.971Z,4.32
2023-04-07T02:25:05.982Z,4.20
2023-04-07T02:27:54.092Z,4.28
2023-04-07T02:30:47.988Z,4.90
2023-04-07T02:33:41.993Z,4.75
2023-04-07T02:36:36.189Z,4.10
2023-04-07T02:39:30.003Z,4.28
2023-04-07T02:42:17.076Z,3.42
2023-04-07T02:45:11.994Z,4.28
2023-04-07T02:47:59.196Z,4.63
2023-04-07T02:50:53.022Z,4.65
2023-04-07T02:53:40.170Z,4.03
2023-04-07T02:56:34.022Z,4.20
2023-04-07T02:59:21.081Z,4.13
2023-04-07T03:02:15.111Z,3.67
2023-04-07T03:05:04.389Z,3.95
2023-04-07T03:07:58.039Z,4.50
2023-04-07T03:10:45.486Z,3.90
2023-04-07T03:13:39.062Z,4.22
2023-04-07T03:16:33.093Z,3.92
2023-04-07T03:19:27.071Z,5.10
2023-04-07T03:22:21.151Z,4.07
2023-04-07T03:25:15.042Z,4.07
2023-04-07T03:28:09.077Z,4.03
2023-04-07T03:31:03.162Z,4.20
2023-04-07T03:33:51.045Z,4.47
2023-04-07T03:36:45.154Z,5.03
2023-04-07T03:39:39.107Z,4.40
2023-04-07T03:42:26.380Z,4.80
2023-04-07T03:45:20.072Z,4.70
2023-04-07T03:48:17.116Z,4.38
2023-04-07T03:51:04.233Z,4.63
2023-04-07T03:53:58.158Z,4.82
2023-04-07T03:56:45.533Z,5.95
2023-04-07T03:59:39.114Z,5.28
2023-04-07T04:02:33.218Z,5.75
2023-04-07T04:05:27.394Z,5.88
2023-04-07T04:08:14.501Z,5.43
2023-04-07T04:11:08.129Z,4.85
2023-04-07T04:14:08.351Z,5.43
2023-04-07T04:17:02.169Z,6.18
2023-04-07T04:19:52.608Z,6.82
2023-04-07T04:22:46.144Z,6.10
2023-04-07T04:25:40.129Z,6.90
2023-04-07T04:28:34.166Z,8.45
2023-04-07T04:31:28.192Z,7.30
2023-04-07T04:34:15.542Z,9.25
2023-04-07T04:37:09.165Z,9.90
2023-04-07T04:40:03.161Z,8.57
2023-04-07T04:42:50.516Z,8.10
2023-04-07T04:45:44.208Z,6.45
2023-04-07T04:48:31.306Z,5.80
2023-04-07T04:51:25.235Z,6.60
2023-04-07T04:54:12.292Z,7.07
2023-04-07T04:57:06.160Z,6.50
2023-04-07T05:00:00.192Z,5.65
2023-04-07T05:02:54.381Z,7.50
2023-04-07T05:05:48.285Z,6.75
2023-04-07T05:08:42.208Z,6.50
2023-04-07T05:11:36.203Z,7.30
2023-04-07T05:14:30.205Z,8.35
2023-04-07T05:17:24.310Z,7.18
2023-04-07T05:20:11.688Z,6.35
2023-04-07T05:23:05.184Z,5.28
2023-04-07T05:25:52.272Z,5.25
2023-04-07T05:28:46.196Z,5.13
2023-04-07T05:31:42.412Z,5.13
2023-04-07T05:34:36.231Z,5.45
2023-04-07T05:37:23.317Z,5.72
2023-04-07T05:40:17.315Z,5.22
2023-04-07T05:43:11.285Z,4.93
2023-04-07T05:46:05.287Z,4.80
2023-04-07T05:49:04.656Z,5.15
2023-04-07T05:52:00.320Z,4.93
2023-04-07T05:54:54.299Z,4.03
2023-04-07T05:57:42.088Z,4.78
2023-04-07T06:00:35.271Z,4.05
2023-04-07T06:03:29.375Z,3.95
2023-04-07T06:06:23.295Z,3.47
2023-04-07T06:09:17.344Z,3.60
2023-04-07T06:12:13.313Z,3.70
2023-04-07T06:15:07.323Z,3.30
2023-04-07T06:17:54.430Z,3.28
2023-04-07T06:20:48.319Z,3.55
2023-04-07T06:23:42.314Z,3.42
2023-04-07T06:26:29.534Z,3.20
2023-04-07T06:29:24.370Z,3.50
2023-04-07T06:32:11.862Z,3.72
2023-04-07T06:35:05.428Z,3.45
2023-04-07T06:37:59.360Z,3.80
2023-04-07T06:40:46.463Z,3.60
2023-04-07T06:43:40.354Z,4.07
2023-04-07T06:46:27.542Z,3.53
2023-04-07T06:49:21.362Z,3.45
2023-04-07T06:52:15.372Z,3.50
2023-04-07T06:55:02.729Z,3.38
2023-04-07T06:57:58.746Z,3.53
2023-04-07T07:00:45.906Z,3.53
2023-04-07T07:03:39.521Z,3.70
2023-04-07T07:06:27.509Z,3.30
2023-04-07T07:09:21.445Z,3.83
2023-04-07T07:12:15.407Z,3.97
2023-04-07T07:15:03.616Z,4.00
2023-04-07T07:17:57.455Z,3.58
2023-04-07T07:20:44.866Z,3.25
2023-04-07T07:23:38.468Z,3.30
2023-04-07T07:26:26.298Z,3.55
2023-04-07T07:29:20.445Z,3.30
2023-04-07T07:32:07.512Z,3.45
2023-04-07T07:35:01.719Z,3.60
2023-04-07T07:37:55.572Z,3.22
2023-04-07T07:40:49.454Z,3.03
2023-04-07T07:43:37.296Z,2.65
2023-04-07T07:46:32.558Z,3.47
2023-04-07T07:49:19.742Z,3.00
2023-04-07T07:52:13.568Z,2.97
2023-04-07T07:55:00.903Z,3.38
2023-04-07T07:57:54.731Z,3.30
2023-04-07T08:00:42.083Z,3.50
2023-04-07T08:03:35.621Z,2.80
2023-04-07T08:06:23.480Z,3.67
2023-04-07T08:09:17.487Z,3.25
2023-04-07T08:12:04.589Z,3.20
2023-04-07T08:14:58.790Z,3.35
2023-04-07T08:17:46.305Z,3.25
2023-04-07T08:20:40.599Z,2.83
2023-04-07T08:23:27.784Z,3.30
2023-04-07T08:26:21.549Z,3.83
2023-04-07T08:29:15.584Z,3.00
2023-04-07T08:32:02.722Z,3.13
2023-04-07T08:34:56.594Z,2.97
2023-04-07T08:37:44.405Z,2.70
2023-04-07T08:40:39.559Z,2.78
2023-04-07T08:43:34.587Z,2.45
2023-04-07T08:46:25.916Z,2.65
2023-04-07T08:49:20.687Z,2.30
2023-04-07T08:52:11.436Z,2.38
2023-04-07T08:55:08.903Z,2.38
2023-04-07T08:57:57.010Z,2.45
2023-04-07T09:00:52.612Z,2.72
2023-04-07T09:03:40.938Z,2.88
2023-04-07T09:06:36.685Z,3.55
2023-04-07T09:09:24.427Z,3.20
2023-04-07T09:12:18.616Z,2.75
2023-04-07T09:15:07.806Z,3.05
2023-04-07T09:18:03.684Z,2.80
2023-04-07T09:21:07.599Z,2.63
2023-04-07T09:23:54.867Z,3.10
2023-04-07T09:26:48.647Z,2.58
2023-04-07T09:29:35.910Z,2.47
2023-04-07T09:32:47.674Z,2.60
2023-04-07T09:35:58.684Z,3.67
2023-04-07T09:38:53.604Z,2.90
2023-04-07T09:41:47.715Z,3.92
2023-04-07T09:44:49.937Z,3.85
2023-04-07T09:47:38.253Z,3.10
2023-04-07T09:50:43.644Z,3.20
2023-04-07T09:53:57.652Z,2.30
2023-04-07T09:56:45.551Z,2.90
2023-04-07T09:59:40.671Z,2.20
2023-04-07T10:02:27.913Z,2.35
2023-04-07T10:05:22.693Z,3.00
2023-04-07T10:08:10.088Z,2.80
2023-04-07T10:11:04.734Z,2.53
2023-04-07T10:13:52.569Z,3.13
2023-04-07T10:16:48.739Z,3.17
2023-04-07T10:19:36.429Z,3.35
2023-04-07T10:22:30.953Z,4.63
2023-04-07T10:25:21.289Z,4.22
2023-04-07T10:28:19.019Z,3.50
2023-04-07T10:31:06.592Z,3.83
2023-04-07T10:34:01.718Z,4.03
2023-04-07T10:37:20.802Z,3.33
2023-04-07T10:40:28.092Z,2.90
2023-04-07T10:43:49.360Z,2.95
2023-04-07T10:46:45.937Z,2.70
2023-04-07T10:50:13.728Z,3.05
2023-04-07T10:53:14.737Z,3.13
2023-04-07T10:56:02.021Z,2.67
2023-04-07T10:59:21.764Z,2.42
2023-04-07T11:02:15.052Z,2.35
2023-04-07T11:05:10.007Z,2.30
2023-04-07T11:07:59.297Z,3.20
2023-04-07T11:10:54.798Z,3.40
2023-04-07T11:13:48.823Z,2.83
2023-04-07T11:16:48.855Z,2.65
2023-04-07T11:19:53.801Z,3.60
2023-04-07T11:22:48.840Z,2.58
2023-04-07T11:25:36.831Z,2.42
2023-04-07T11:28:30.813Z,2.90
2023-04-07T11:31:38.160Z,2.83
2023-04-07T11:34:36.715Z,2.80
2023-04-07T11:37:33.822Z,2.25
2023-04-07T11:40:41.238Z,2.05
2023-04-07T11:43:35.023Z,2.42
2023-04-07T11:46:23.759Z,3.65
2023-04-07T11:49:21.824Z,2.53
2023-04-07T11:52:16.091Z,2.40
2023-04-07T11:55:03.225Z,2.70
2023-04-07T11:58:00.840Z,2.40
2023-04-07T12:00:55.837Z,2.50
2023-04-07T12:04:09.955Z,2.53
2023-04-07T12:07:10.840Z,2.97
2023-04-07T12:10:05.173Z,2.72
2023-04-07T12:12:52.337Z,2.45
2023-04-07T12:15:46.249Z,2.63
2023-04-07T12:18:33.430Z,2.67
2023-04-07T12:21:27.876Z,3.10
2023-04-07T12:24:15.111Z,3.78
2023-04-07T12:27:10.043Z,3.22
2023-04-07T12:30:03.965Z,3.22
2023-04-07T12:32:51.172Z,3.10
2023-04-07T12:35:46.007Z,3.35
2023-04-07T12:38:33.131Z,3.17
2023-04-07T12:41:27.203Z,3.03
2023-04-07T12:44:15.643Z,2.88
2023-04-07T12:47:08.971Z,3.13
2023-04-07T12:49:56.311Z,3.22
2023-04-07T12:52:50.247Z,2.90
2023-04-07T12:55:37.578Z,2.67
2023-04-07T12:58:31.933Z,2.85
2023-04-07T13:01:26.006Z,3.53
2023-04-07T13:04:20.074Z,3.28
2023-04-07T13:07:08.316Z,3.25
2023-04-07T13:10:01.968Z,3.80
2023-04-07T13:12:56.310Z,3.22
2023-04-07T13:15:43.417Z,3.50
2023-04-07T13:18:37.285Z,4.65
2023-04-07T13:24:21.018Z,4.15
2023-04-07T13:27:08.881Z,3.53
2023-04-07T13:30:03.011Z,3.70
2023-04-07T13:32:50.230Z,3.53
2023-04-07T13:35:44.086Z,3.28
2023-04-07T13:38:31.621Z,4.68
2023-04-07T13:41:25.058Z,3.30
2023-04-07T13:44:19.040Z,3.88
2023-04-07T13:47:06.523Z,3.55
2023-04-07T13:50:00.197Z,3.80
2023-04-07T13:52:48.265Z,3.45
2023-04-07T13:55:42.025Z,3.90
2023-04-07T13:58:31.977Z,3.50
2023-04-07T14:01:26.524Z,3.65
2023-04-07T14:04:14.249Z,3.40
2023-04-07T14:07:08.043Z,3.88
2023-04-07T14:10:02.077Z,4.07
2023-04-07T14:12:49.180Z,3.45
2023-04-07T14:15:43.079Z,3.90
2023-04-07T14:18:30.315Z,3.58
2023-04-07T14:21:24.099Z,3.33
2023-04-07T14:24:18.130Z,3.30
2023-04-07T14:27:12.112Z,3.42
2023-04-07T14:30:00.224Z,3.30
2023-04-07T14:32:54.230Z,3.65
2023-04-07T14:35:48.109Z,4.03
2023-04-07T14:38:42.104Z,3.05
2023-04-07T14:41:36.391Z,3.47
2023-04-07T14:44:30.162Z,3.30
2023-04-07T14:47:17.276Z,3.58
2023-04-07T14:50:11.126Z,3.75
2023-04-07T14:53:05.362Z,3.28
2023-04-07T14:55:59.365Z,4.18
2023-04-07T14:58:46.464Z,3.88
2023-04-07T15:01:40.269Z,3.63
2023-04-07T15:04:27.525Z,4.10
2023-04-07T15:07:21.158Z,4.13
2023-04-07T15:10:08.561Z,3.70
2023-04-07T15:13:02.203Z,3.80
2023-04-07T15:15:56.197Z,3.40
2023-04-07T15:18:52.214Z,4.45
2023-04-07T15:21:46.155Z,3.50
2023-04-07T15:24:33.285Z,5.07
2023-04-07T15:27:27.220Z,4.60
2023-04-07T15:30:14.509Z,4.72
2023-04-07T15:33:11.224Z,4.25
2023-04-07T15:35:59.264Z,4.40
2023-04-07T15:38:53.382Z,3.95
2023-04-07T15:41:40.765Z,3.90
2023-04-07T15:44:34.266Z,4.80
2023-04-07T15:47:21.392Z,5.60
2023-04-07T15:50:15.182Z,5.57
2023-04-07T15:53:11.255Z,7.93
2023-04-07T15:56:05.247Z,7.82
2023-04-07T15:58:52.665Z,6.60
2023-04-07T16:01:46.333Z,6.30
2023-04-07T16:04:40.236Z,4.93
2023-04-07T16:07:34.268Z,4.72
2023-04-07T16:10:21.781Z,6.57
2023-04-07T16:13:16.275Z,6.28
2023-04-07T16:16:10.319Z,4.85
2023-04-07T16:19:04.217Z,5.53
2023-04-07T16:21:52.602Z,5.28
2023-04-07T16:24:46.290Z,5.25
2023-04-07T16:27:40.297Z,5.50
2023-04-07T16:30:27.413Z,5.82
2023-04-07T16:33:21.515Z,5.32
2023-04-07T16:36:08.725Z,5.45
2023-04-07T16:39:04.299Z,6.30
2023-04-07T16:41:51.905Z,6.55
2023-04-07T16:44:45.299Z,6.88
2023-04-07T16:47:39.388Z,7.85
2023-04-07T16:50:26.555Z,7.68
2023-04-07T16:53:21.583Z,7.15
2023-04-07T16:56:16.513Z,7.88
2023-04-07T16:59:10.283Z,8.70
2023-04-07T17:02:04.471Z,7.00
2023-04-07T17:04:58.375Z,9.30
2023-04-07T17:07:52.391Z,10.02
2023-04-07T17:10:39.476Z,8.68
2023-04-07T17:13:33.327Z,9.10
2023-04-07T17:16:20.613Z,9.43
2023-04-07T17:19:14.332Z,8.55
2023-04-07T17:22:01.443Z,11.48
2023-04-07T17:24:55.410Z,12.18
2023-04-07T17:27:49.378Z,11.48
2023-04-07T17:30:37.375Z,13.98
2023-04-07T17:33:32.442Z,12.27
2023-04-07T17:36:26.419Z,11.75
2023-04-07T17:39:20.438Z,10.95
2023-04-07T17:42:07.603Z,9.60
2023-04-07T17:45:01.751Z,9.15
2023-04-07T17:47:48.999Z,9.68
2023-04-07T17:50:42.400Z,8.82
2023-04-07T17:53:36.441Z,8.82
2023-04-07T17:56:31.441Z,9.05
2023-04-07T17:59:18.611Z,8.10
2023-04-07T18:02:16.539Z,6.95
2023-04-07T18:05:06.838Z,7.15
2023-04-07T18:08:01.549Z,6.43
2023-04-07T18:10:48.621Z,6.45
2023-04-07T18:13:42.485Z,6.10
2023-04-07T18:16:36.496Z,6.50
2023-04-07T18:19:37.473Z,5.35
2023-04-07T18:22:31.476Z,6.00
2023-04-07T18:25:18.646Z,6.82
2023-04-07T18:28:12.508Z,6.38
2023-04-07T18:31:08.570Z,6.38
2023-04-07T18:34:02.509Z,6.65
2023-04-07T18:36:56.458Z,7.15
2023-04-07T18:39:50.505Z,7.47
2023-04-07T18:42:44.466Z,8.52
2023-04-07T18:45:31.789Z,8.70
2023-04-07T18:48:26.617Z,9.43
2023-04-07T18:51:20.537Z,11.20
2023-04-07T18:54:07.588Z,12.38
2023-04-07T18:57:01.543Z,13.30
2023-04-07T18:59:55.490Z,14.57
2023-04-07T19:02:50.638Z,15.07
2023-04-07T19:05:39.754Z,13.73
2023-04-07T19:08:33.504Z,12.88
2023-04-07T19:11:27.629Z,16.85
2023-04-07T19:14:21.558Z,17.13
2023-04-07T19:17:08.715Z,17.67
2023-04-07T19:20:02.602Z,18.17
2023-04-07T19:22:49.690Z,20.75
2023-04-07T19:25:45.634Z,18.98
2023-04-07T19:28:33.831Z,21.83
2023-04-07T19:31:27.657Z,21.08
2023-04-07T19:34:21.545Z,20.48
2023-04-07T19:37:08.672Z,19.35
2023-04-07T19:40:03.563Z,21.35
2023-04-07T19:42:50.915Z,20.08
2023-04-07T19:45:44.822Z,17.83
2023-04-07T19:48:32.539Z,17.23
2023-04-07T19:51:26.578Z,19.83
2023-04-07T19:54:14.035Z,19.60
2023-04-07T19:57:08.609Z,22.50
2023-04-07T20:00:02.600Z,22.95
2023-04-07T20:02:56.717Z,24.80
2023-04-07T20:05:44.503Z,23.55
2023-04-07T20:08:38.592Z,23.63
2023-04-07T20:11:26.089Z,23.27
2023-04-07T20:14:19.900Z,22.35
2023-04-07T20:17:13.609Z,23.25
2023-04-07T20:20:14.748Z,24.90
2023-04-07T20:23:08.658Z,24.23
2023-04-07T20:25:55.693Z,23.75
2023-04-07T20:28:49.875Z,21.50
2023-04-07T20:31:37.091Z,20.20
2023-04-07T20:34:30.640Z,21.75
2023-04-07T20:37:18.434Z,24.50
2023-04-07T20:40:13.652Z,24.83
2023-04-07T20:43:00.795Z,24.95
2023-04-07T20:45:54.759Z,25.35
2023-04-07T20:48:41.886Z,26.85
2023-04-07T20:51:37.735Z,23.75
2023-04-07T20:54:31.753Z,24.80
2023-04-07T20:57:25.765Z,22.83
2023-04-07T21:00:13.287Z,23.13
2023-04-07T21:03:06.905Z,25.05
2023-04-07T21:06:00.687Z,24.33
2023-04-07T21:08:54.761Z,28.38
2023-04-07T21:11:48.759Z,27.60
2023-04-07T21:14:42.732Z,27.17
2023-04-07T21:17:36.778Z,25.25
2023-04-07T21:20:23.902Z,26.35
2023-04-07T21:23:17.799Z,26.67
2023-04-07T21:26:11.773Z,26.20
2023-04-07T21:28:58.850Z,28.02
2023-04-07T21:31:52.744Z,26.65
2023-04-07T21:34:40.386Z,25.88
2023-04-07T21:37:33.777Z,26.98
2023-04-07T21:40:20.938Z,25.75
2023-04-07T21:43:14.778Z,31.63
2023-04-07T21:46:08.788Z,31.35
2023-04-07T21:48:55.876Z,28.90
2023-04-07T21:51:49.819Z,25.88
2023-04-07T21:54:36.890Z,28.25
2023-04-07T21:57:30.813Z,28.10
2023-04-07T22:00:24.804Z,28.85
2023-04-07T22:03:12.055Z,25.05
2023-04-07T22:06:06.784Z,25.75
2023-04-07T22:09:02.096Z,24.83
2023-04-07T22:11:49.640Z,24.02
2023-04-07T22:14:43.985Z,22.50
2023-04-07T22:17:37.842Z,23.10
2023-04-07T22:20:32.854Z,25.63
2023-04-07T22:23:26.837Z,22.25
2023-04-07T22:26:14.305Z,24.00
2023-04-07T22:29:07.859Z,31.05
2023-04-07T22:32:01.970Z,33.78
2023-04-07T22:34:49.149Z,33.88
2023-04-07T22:37:42.910Z,31.95
2023-04-07T22:40:36.865Z,30.73
2023-04-07T22:43:23.898Z,31.30
2023-04-07T22:46:17.923Z,30.92
2023-04-07T22:49:11.867Z,34.10
2023-04-07T22:52:05.857Z,32.00
2023-04-07T22:54:53.017Z,30.13
2023-04-07T22:57:46.857Z,28.50
2023-04-07T23:00:34.136Z,32.47
2023-04-07T23:03:28.050Z,28.88
2023-04-07T23:06:15.465Z,27.45
2023-04-07T23:09:08.884Z,26.83
2023-04-07T23:12:03.886Z,26.27
2023-04-07T23:14:57.872Z,25.52
2023-04-07T23:17:44.959Z,30.05
2023-04-07T23:20:38.915Z,23.15
2023-04-07T23:23:26.036Z,22.73
2023-04-07T23:26:19.925Z,25.48
2023-04-07T23:29:13.931Z,25.45
2023-04-07T23:32:01.338Z,24.00
2023-04-07T23:34:54.944Z,21.83
2023-04-07T23:37:48.944Z,24.13
2023-04-07T23:40:42.989Z,26.33
2023-04-07T23:43:37.064Z,23.33
2023-04-07T23:46:30.952Z,21.85
2023-04-07T23:49:24.912Z,20.02
2023-04-07T23:52:12.196Z,19.05
2023-04-07T23:55:05.982Z,19.02
2023-04-07T23:58:00.010Z,17.83
